sensor_id;sensor_type;location;lat;lon;timestamp;P1;durP1;ratioP1;P2;durP2;ratioP2
47483;SDS011;54076;50.322;18.650;2023-08-20T00:01:09;21.70;;;13.40;;
47483;SDS011;54076;50.322;18.650;2023-08-20T00:06:13;20.10;;;13.10;;
47483;SDS011;54076;50.322;18.650;2023-08-20T00:11:14;23.80;;;14.30;;
47483;SDS011;54076;50.322;18.650;2023-08-20T00:16:16;23.70;;;13.70;;
47483;SDS011;54076;50.322;18.650;2023-08-20T00:21:17;20.30;;;14.00;;
47483;SDS011;54076;50.322;18.650;2023-08-20T00:26:18;22.60;;;14.00;;
47483;SDS011;54076;50.322;18.650;2023-08-20T00:31:19;20.80;;;13.40;;
47483;SDS011;54076;50.322;18.650;2023-08-20T00:36:20;21.90;;;13.80;;
47483;SDS011;54076;50.322;18.650;2023-08-20T00:41:21;21.50;;;13.60;;
47483;SDS011;54076;50.322;18.650;2023-08-20T00:46:22;25.70;;;14.50;;
47483;SDS011;54076;50.322;18.650;2023-08-20T00:51:23;20.30;;;13.60;;
47483;SDS011;54076;50.322;18.650;2023-08-20T00:56:25;22.90;;;13.30;;
47483;SDS011;54076;50.322;18.650;2023-08-20T01:01:27;21.10;;;13.50;;
47483;SDS011;54076;50.322;18.650;2023-08-20T01:06:44;24.90;;;14.00;;
47483;SDS011;54076;50.322;18.650;2023-08-20T01:11:56;20.40;;;14.10;;
47483;SDS011;54076;50.322;18.650;2023-08-20T01:17:00;21.90;;;13.60;;
47483;SDS011;54076;50.322;18.650;2023-08-20T01:22:35;20.40;;;12.70;;
47483;SDS011;54076;50.322;18.650;2023-08-20T01:33:24;20.10;;;13.60;;
47483;SDS011;54076;50.322;18.650;2023-08-20T01:38:26;23.60;;;13.70;;
47483;SDS011;54076;50.322;18.650;2023-08-20T01:43:27;20.70;;;13.20;;
47483;SDS011;54076;50.322;18.650;2023-08-20T01:48:28;24.60;;;14.10;;
47483;SDS011;54076;50.322;18.650;2023-08-20T01:53:29;22.80;;;13.00;;
47483;SDS011;54076;50.322;18.650;2023-08-20T01:58:30;20.90;;;13.40;;
47483;SDS011;54076;50.322;18.650;2023-08-20T02:12:53;22.50;;;14.20;;
47483;SDS011;54076;50.322;18.650;2023-08-20T02:17:56;22.80;;;13.30;;
47483;SDS011;54076;50.322;18.650;2023-08-20T02:22:57;21.70;;;13.90;;
47483;SDS011;54076;50.322;18.650;2023-08-20T02:27:58;20.60;;;12.80;;
47483;SDS011;54076;50.322;18.650;2023-08-20T02:32:59;27.10;;;14.00;;
47483;SDS011;54076;50.322;18.650;2023-08-20T02:38:00;21.60;;;14.00;;
47483;SDS011;54076;50.322;18.650;2023-08-20T02:43:00;21.40;;;13.70;;
47483;SDS011;54076;50.322;18.650;2023-08-20T02:48:01;28.60;;;13.50;;
47483;SDS011;54076;50.322;18.650;2023-08-20T02:53:03;23.00;;;13.20;;
47483;SDS011;54076;50.322;18.650;2023-08-20T02:58:04;25.30;;;14.70;;
47483;SDS011;54076;50.322;18.650;2023-08-20T03:03:08;23.50;;;13.90;;
47483;SDS011;54076;50.322;18.650;2023-08-20T03:08:10;22.20;;;13.70;;
47483;SDS011;54076;50.322;18.650;2023-08-20T03:13:11;21.50;;;14.30;;
47483;SDS011;54076;50.322;18.650;2023-08-20T03:18:12;21.80;;;13.60;;
47483;SDS011;54076;50.322;18.650;2023-08-20T03:23:12;24.50;;;13.90;;
47483;SDS011;54076;50.322;18.650;2023-08-20T03:28:13;19.50;;;13.50;;
47483;SDS011;54076;50.322;18.650;2023-08-20T03:33:14;21.80;;;13.70;;
47483;SDS011;54076;50.322;18.650;2023-08-20T03:38:17;19.70;;;12.80;;
47483;SDS011;54076;50.322;18.650;2023-08-20T03:43:18;20.90;;;12.70;;
47483;SDS011;54076;50.322;18.650;2023-08-20T03:48:19;21.40;;;12.70;;
47483;SDS011;54076;50.322;18.650;2023-08-20T03:53:21;18.60;;;12.30;;
47483;SDS011;54076;50.322;18.650;2023-08-20T03:58:22;19.80;;;12.60;;
47483;SDS011;54076;50.322;18.650;2023-08-20T04:03:23;18.40;;;12.50;;
47483;SDS011;54076;50.322;18.650;2023-08-20T04:08:24;22.00;;;13.40;;
47483;SDS011;54076;50.322;18.650;2023-08-20T04:13:25;20.40;;;12.70;;
47483;SDS011;54076;50.322;18.650;2023-08-20T04:18:26;23.00;;;12.90;;
47483;SDS011;54076;50.322;18.650;2023-08-20T04:23:27;21.80;;;12.70;;
47483;SDS011;54076;50.322;18.650;2023-08-20T04:28:28;19.20;;;11.90;;
47483;SDS011;54076;50.322;18.650;2023-08-20T04:33:29;18.50;;;12.20;;
47483;SDS011;54076;50.322;18.650;2023-08-20T04:38:30;19.60;;;11.90;;
47483;SDS011;54076;50.322;18.650;2023-08-20T04:43:31;20.40;;;11.70;;
47483;SDS011;54076;50.322;18.650;2023-08-20T04:48:31;21.60;;;12.00;;
47483;SDS011;54076;50.322;18.650;2023-08-20T04:53:32;24.40;;;12.30;;
47483;SDS011;54076;50.322;18.650;2023-08-20T04:58:33;19.90;;;12.50;;
47483;SDS011;54076;50.322;18.650;2023-08-20T05:03:34;17.40;;;11.60;;
47483;SDS011;54076;50.322;18.650;2023-08-20T05:08:35;18.50;;;12.40;;
47483;SDS011;54076;50.322;18.650;2023-08-20T05:13:36;21.00;;;13.10;;
47483;SDS011;54076;50.322;18.650;2023-08-20T05:18:37;20.20;;;12.60;;
47483;SDS011;54076;50.322;18.650;2023-08-20T05:23:38;21.80;;;12.50;;
47483;SDS011;54076;50.322;18.650;2023-08-20T05:28:39;21.40;;;13.40;;
47483;SDS011;54076;50.322;18.650;2023-08-20T05:33:40;20.90;;;13.40;;
47483;SDS011;54076;50.322;18.650;2023-08-20T05:38:40;19.40;;;13.30;;
47483;SDS011;54076;50.322;18.650;2023-08-20T05:43:43;20.90;;;13.40;;
47483;SDS011;54076;50.322;18.650;2023-08-20T05:48:44;22.80;;;13.40;;
47483;SDS011;54076;50.322;18.650;2023-08-20T05:53:45;19.50;;;13.00;;
47483;SDS011;54076;50.322;18.650;2023-08-20T05:58:46;18.30;;;12.80;;
47483;SDS011;54076;50.322;18.650;2023-08-20T06:03:47;21.70;;;13.20;;
47483;SDS011;54076;50.322;18.650;2023-08-20T06:08:47;18.70;;;12.60;;
47483;SDS011;54076;50.322;18.650;2023-08-20T06:13:48;18.80;;;12.50;;
47483;SDS011;54076;50.322;18.650;2023-08-20T06:18:49;21.40;;;11.70;;
47483;SDS011;54076;50.322;18.650;2023-08-20T06:23:50;17.80;;;12.00;;
47483;SDS011;54076;50.322;18.650;2023-08-20T06:28:51;18.40;;;10.60;;
47483;SDS011;54076;50.322;18.650;2023-08-20T06:33:52;16.40;;;11.10;;
47483;SDS011;54076;50.322;18.650;2023-08-20T06:38:53;18.00;;;11.00;;
47483;SDS011;54076;50.322;18.650;2023-08-20T06:43:54;17.50;;;11.40;;
47483;SDS011;54076;50.322;18.650;2023-08-20T06:48:55;17.10;;;11.10;;
47483;SDS011;54076;50.322;18.650;2023-08-20T06:53:56;17.10;;;11.10;;
47483;SDS011;54076;50.322;18.650;2023-08-20T07:01:12;19.50;;;12.20;;
47483;SDS011;54076;50.322;18.650;2023-08-20T07:06:13;17.90;;;11.20;;
47483;SDS011;54076;50.322;18.650;2023-08-20T07:11:16;15.80;;;11.70;;
47483;SDS011;54076;50.322;18.650;2023-08-20T07:16:18;16.30;;;11.40;;
47483;SDS011;54076;50.322;18.650;2023-08-20T07:21:19;15.70;;;11.00;;
47483;SDS011;54076;50.322;18.650;2023-08-20T07:26:21;16.40;;;11.10;;
47483;SDS011;54076;50.322;18.650;2023-08-20T07:31:32;15.20;;;9.90;;
47483;SDS011;54076;50.322;18.650;2023-08-20T07:36:34;14.80;;;10.10;;
47483;SDS011;54076;50.322;18.650;2023-08-20T07:41:34;14.90;;;10.40;;
47483;SDS011;54076;50.322;18.650;2023-08-20T07:46:35;16.00;;;10.90;;
47483;SDS011;54076;50.322;18.650;2023-08-20T07:51:36;17.20;;;10.80;;
47483;SDS011;54076;50.322;18.650;2023-08-20T07:56:37;13.50;;;10.00;;
47483;SDS011;54076;50.322;18.650;2023-08-20T08:01:38;15.50;;;9.60;;
47483;SDS011;54076;50.322;18.650;2023-08-20T08:06:39;15.10;;;9.90;;
47483;SDS011;54076;50.322;18.650;2023-08-20T08:11:40;15.00;;;9.90;;
47483;SDS011;54076;50.322;18.650;2023-08-20T08:16:41;14.70;;;9.80;;
47483;SDS011;54076;50.322;18.650;2023-08-20T08:21:43;23.90;;;12.20;;
47483;SDS011;54076;50.322;18.650;2023-08-20T08:26:44;15.30;;;9.30;;
47483;SDS011;54076;50.322;18.650;2023-08-20T08:31:45;14.10;;;9.10;;
47483;SDS011;54076;50.322;18.650;2023-08-20T08:36:46;16.40;;;10.20;;
47483;SDS011;54076;50.322;18.650;2023-08-20T08:41:49;13.40;;;8.80;;
47483;SDS011;54076;50.322;18.650;2023-08-20T08:46:51;15.60;;;9.70;;
47483;SDS011;54076;50.322;18.650;2023-08-20T08:51:53;14.20;;;9.50;;
47483;SDS011;54076;50.322;18.650;2023-08-20T08:56:59;16.90;;;10.60;;
47483;SDS011;54076;50.322;18.650;2023-08-20T09:02:00;15.40;;;8.70;;
47483;SDS011;54076;50.322;18.650;2023-08-20T09:07:01;15.20;;;9.20;;
47483;SDS011;54076;50.322;18.650;2023-08-20T09:12:13;14.20;;;9.20;;
47483;SDS011;54076;50.322;18.650;2023-08-20T09:17:15;13.60;;;9.00;;
47483;SDS011;54076;50.322;18.650;2023-08-20T09:22:17;13.10;;;9.00;;
47483;SDS011;54076;50.322;18.650;2023-08-20T09:27:18;13.20;;;8.20;;
47483;SDS011;54076;50.322;18.650;2023-08-20T09:32:26;13.50;;;8.20;;
47483;SDS011;54076;50.322;18.650;2023-08-20T09:37:28;15.40;;;8.10;;
47483;SDS011;54076;50.322;18.650;2023-08-20T09:42:29;11.10;;;7.30;;
47483;SDS011;54076;50.322;18.650;2023-08-20T09:47:35;14.50;;;6.80;;
47483;SDS011;54076;50.322;18.650;2023-08-20T09:52:48;12.10;;;7.10;;
47483;SDS011;54076;50.322;18.650;2023-08-20T09:57:56;17.50;;;8.40;;
47483;SDS011;54076;50.322;18.650;2023-08-20T10:02:57;11.50;;;6.80;;
47483;SDS011;54076;50.322;18.650;2023-08-20T10:07:58;11.50;;;7.30;;
47483;SDS011;54076;50.322;18.650;2023-08-20T10:12:59;10.80;;;6.70;;
47483;SDS011;54076;50.322;18.650;2023-08-20T10:18:01;9.40;;;6.60;;
47483;SDS011;54076;50.322;18.650;2023-08-20T10:23:03;11.40;;;6.30;;
47483;SDS011;54076;50.322;18.650;2023-08-20T10:38:49;10.40;;;6.40;;
47483;SDS011;54076;50.322;18.650;2023-08-20T10:43:50;10.50;;;6.80;;
47483;SDS011;54076;50.322;18.650;2023-08-20T10:49:00;11.90;;;7.10;;
47483;SDS011;54076;50.322;18.650;2023-08-20T10:54:08;9.70;;;7.00;;
47483;SDS011;54076;50.322;18.650;2023-08-20T10:59:21;12.70;;;8.80;;
47483;SDS011;54076;50.322;18.650;2023-08-20T11:04:32;12.10;;;7.50;;
47483;SDS011;54076;50.322;18.650;2023-08-20T11:09:33;10.50;;;7.00;;
47483;SDS011;54076;50.322;18.650;2023-08-20T11:14:34;10.80;;;7.10;;
47483;SDS011;54076;50.322;18.650;2023-08-20T11:19:35;11.00;;;7.00;;
47483;SDS011;54076;50.322;18.650;2023-08-20T11:24:37;10.30;;;6.60;;
47483;SDS011;54076;50.322;18.650;2023-08-20T11:29:42;9.30;;;6.90;;
47483;SDS011;54076;50.322;18.650;2023-08-20T11:34:44;11.90;;;7.20;;
47483;SDS011;54076;50.322;18.650;2023-08-20T11:39:47;9.40;;;7.00;;
47483;SDS011;54076;50.322;18.650;2023-08-20T11:44:49;10.10;;;6.60;;
47483;SDS011;54076;50.322;18.650;2023-08-20T11:50:02;10.70;;;6.30;;
47483;SDS011;54076;50.322;18.650;2023-08-20T11:55:04;10.50;;;6.50;;
47483;SDS011;54076;50.322;18.650;2023-08-20T12:00:07;9.70;;;6.50;;
47483;SDS011;54076;50.322;18.650;2023-08-20T12:05:18;11.50;;;6.80;;
47483;SDS011;54076;50.322;18.650;2023-08-20T12:10:20;10.20;;;6.40;;
47483;SDS011;54076;50.322;18.650;2023-08-20T12:15:23;8.40;;;6.40;;
47483;SDS011;54076;50.322;18.650;2023-08-20T12:20:29;9.80;;;6.00;;
47483;SDS011;54076;50.322;18.650;2023-08-20T12:25:33;9.10;;;6.70;;
47483;SDS011;54076;50.322;18.650;2023-08-20T12:30:36;8.70;;;5.70;;
47483;SDS011;54076;50.322;18.650;2023-08-20T12:35:37;8.40;;;5.40;;
47483;SDS011;54076;50.322;18.650;2023-08-20T12:40:38;10.00;;;5.80;;
47483;SDS011;54076;50.322;18.650;2023-08-20T12:45:39;8.70;;;6.00;;
47483;SDS011;54076;50.322;18.650;2023-08-20T12:50:40;8.50;;;5.80;;
47483;SDS011;54076;50.322;18.650;2023-08-20T12:55:41;8.40;;;5.60;;
47483;SDS011;54076;50.322;18.650;2023-08-20T13:00:42;8.50;;;5.60;;
47483;SDS011;54076;50.322;18.650;2023-08-20T13:05:44;7.20;;;4.80;;
47483;SDS011;54076;50.322;18.650;2023-08-20T13:10:55;7.60;;;5.30;;
47483;SDS011;54076;50.322;18.650;2023-08-20T13:15:57;8.20;;;5.60;;
47483;SDS011;54076;50.322;18.650;2023-08-20T13:20:58;11.90;;;5.30;;
47483;SDS011;54076;50.322;18.650;2023-08-20T13:25:59;6.40;;;4.60;;
47483;SDS011;54076;50.322;18.650;2023-08-20T13:31:00;8.30;;;5.20;;
47483;SDS011;54076;50.322;18.650;2023-08-20T13:36:01;8.20;;;5.40;;
47483;SDS011;54076;50.322;18.650;2023-08-20T13:41:02;8.50;;;5.10;;
47483;SDS011;54076;50.322;18.650;2023-08-20T13:46:03;7.70;;;5.00;;
47483;SDS011;54076;50.322;18.650;2023-08-20T13:51:04;7.30;;;5.10;;
47483;SDS011;54076;50.322;18.650;2023-08-20T13:56:05;6.80;;;4.70;;
47483;SDS011;54076;50.322;18.650;2023-08-20T14:01:06;8.00;;;5.00;;
47483;SDS011;54076;50.322;18.650;2023-08-20T14:06:07;8.20;;;5.20;;
47483;SDS011;54076;50.322;18.650;2023-08-20T14:11:08;7.10;;;4.90;;
47483;SDS011;54076;50.322;18.650;2023-08-20T14:16:09;7.60;;;4.80;;
47483;SDS011;54076;50.322;18.650;2023-08-20T14:21:10;9.70;;;5.10;;
47483;SDS011;54076;50.322;18.650;2023-08-20T14:26:11;9.20;;;6.10;;
47483;SDS011;54076;50.322;18.650;2023-08-20T14:31:12;8.90;;;5.30;;
47483;SDS011;54076;50.322;18.650;2023-08-20T14:36:13;7.40;;;4.80;;
47483;SDS011;54076;50.322;18.650;2023-08-20T14:41:14;8.90;;;5.00;;
47483;SDS011;54076;50.322;18.650;2023-08-20T14:46:15;9.20;;;5.10;;
47483;SDS011;54076;50.322;18.650;2023-08-20T14:51:15;8.50;;;5.30;;
47483;SDS011;54076;50.322;18.650;2023-08-20T14:56:16;8.80;;;5.20;;
47483;SDS011;54076;50.322;18.650;2023-08-20T15:01:17;7.70;;;5.00;;
47483;SDS011;54076;50.322;18.650;2023-08-20T15:06:18;8.20;;;5.00;;
47483;SDS011;54076;50.322;18.650;2023-08-20T15:11:22;8.50;;;5.00;;
47483;SDS011;54076;50.322;18.650;2023-08-20T15:16:23;7.60;;;5.10;;
47483;SDS011;54076;50.322;18.650;2023-08-20T15:21:25;7.40;;;5.10;;
47483;SDS011;54076;50.322;18.650;2023-08-20T15:26:27;8.90;;;5.60;;
47483;SDS011;54076;50.322;18.650;2023-08-20T15:31:28;7.50;;;5.60;;
47483;SDS011;54076;50.322;18.650;2023-08-20T15:36:29;10.70;;;6.50;;
47483;SDS011;54076;50.322;18.650;2023-08-20T15:41:30;10.30;;;6.50;;
47483;SDS011;54076;50.322;18.650;2023-08-20T15:46:31;8.00;;;5.60;;
47483;SDS011;54076;50.322;18.650;2023-08-20T15:51:32;8.80;;;5.90;;
47483;SDS011;54076;50.322;18.650;2023-08-20T15:56:37;8.40;;;5.50;;
47483;SDS011;54076;50.322;18.650;2023-08-20T16:01:39;10.30;;;5.70;;
47483;SDS011;54076;50.322;18.650;2023-08-20T16:06:40;8.70;;;5.70;;
47483;SDS011;54076;50.322;18.650;2023-08-20T16:11:41;10.10;;;5.60;;
47483;SDS011;54076;50.322;18.650;2023-08-20T16:16:41;8.40;;;5.40;;
47483;SDS011;54076;50.322;18.650;2023-08-20T16:21:42;8.70;;;5.70;;
47483;SDS011;54076;50.322;18.650;2023-08-20T16:26:43;8.80;;;5.70;;
47483;SDS011;54076;50.322;18.650;2023-08-20T16:31:44;11.30;;;7.00;;
47483;SDS011;54076;50.322;18.650;2023-08-20T16:36:45;10.30;;;5.60;;
47483;SDS011;54076;50.322;18.650;2023-08-20T16:41:46;11.20;;;6.00;;
47483;SDS011;54076;50.322;18.650;2023-08-20T16:46:47;10.50;;;5.50;;
47483;SDS011;54076;50.322;18.650;2023-08-20T16:51:48;10.00;;;6.30;;
47483;SDS011;54076;50.322;18.650;2023-08-20T16:56:49;11.90;;;6.90;;
47483;SDS011;54076;50.322;18.650;2023-08-20T17:01:50;8.80;;;6.00;;
47483;SDS011;54076;50.322;18.650;2023-08-20T17:06:52;8.80;;;5.70;;
47483;SDS011;54076;50.322;18.650;2023-08-20T17:11:53;9.30;;;5.70;;
47483;SDS011;54076;50.322;18.650;2023-08-20T17:16:54;9.10;;;5.60;;
47483;SDS011;54076;50.322;18.650;2023-08-20T17:21:55;7.30;;;5.60;;
47483;SDS011;54076;50.322;18.650;2023-08-20T17:26:56;10.10;;;6.00;;
47483;SDS011;54076;50.322;18.650;2023-08-20T17:31:57;9.00;;;5.70;;
47483;SDS011;54076;50.322;18.650;2023-08-20T17:36:59;9.70;;;5.60;;
47483;SDS011;54076;50.322;18.650;2023-08-20T17:42:00;13.50;;;8.60;;
47483;SDS011;54076;50.322;18.650;2023-08-20T17:47:00;11.30;;;6.10;;
47483;SDS011;54076;50.322;18.650;2023-08-20T17:52:01;9.00;;;6.10;;
47483;SDS011;54076;50.322;18.650;2023-08-20T17:57:02;9.10;;;6.30;;
47483;SDS011;54076;50.322;18.650;2023-08-20T18:02:04;11.20;;;6.50;;
47483;SDS011;54076;50.322;18.650;2023-08-20T18:07:05;9.80;;;6.20;;
47483;SDS011;54076;50.322;18.650;2023-08-20T18:12:07;9.50;;;6.30;;
47483;SDS011;54076;50.322;18.650;2023-08-20T18:17:08;8.60;;;6.20;;
47483;SDS011;54076;50.322;18.650;2023-08-20T18:22:08;10.80;;;7.40;;
47483;SDS011;54076;50.322;18.650;2023-08-20T18:27:10;11.00;;;6.50;;
47483;SDS011;54076;50.322;18.650;2023-08-20T18:32:11;11.30;;;6.40;;
47483;SDS011;54076;50.322;18.650;2023-08-20T18:37:12;9.00;;;6.70;;
47483;SDS011;54076;50.322;18.650;2023-08-20T18:42:13;9.50;;;6.10;;
47483;SDS011;54076;50.322;18.650;2023-08-20T18:47:14;10.60;;;6.60;;
47483;SDS011;54076;50.322;18.650;2023-08-20T18:52:14;12.20;;;6.80;;
47483;SDS011;54076;50.322;18.650;2023-08-20T18:57:15;24.60;;;16.20;;
47483;SDS011;54076;50.322;18.650;2023-08-20T19:02:16;12.30;;;8.10;;
47483;SDS011;54076;50.322;18.650;2023-08-20T19:07:17;11.70;;;7.00;;
47483;SDS011;54076;50.322;18.650;2023-08-20T19:12:18;11.70;;;6.80;;
47483;SDS011;54076;50.322;18.650;2023-08-20T19:17:19;10.00;;;6.20;;
47483;SDS011;54076;50.322;18.650;2023-08-20T19:22:20;9.40;;;6.40;;
47483;SDS011;54076;50.322;18.650;2023-08-20T19:27:24;14.60;;;7.50;;
47483;SDS011;54076;50.322;18.650;2023-08-20T19:32:25;13.10;;;7.80;;
47483;SDS011;54076;50.322;18.650;2023-08-20T19:37:26;13.10;;;8.30;;
47483;SDS011;54076;50.322;18.650;2023-08-20T19:42:27;16.80;;;9.30;;
47483;SDS011;54076;50.322;18.650;2023-08-20T19:47:28;13.00;;;8.60;;
47483;SDS011;54076;50.322;18.650;2023-08-20T19:52:29;15.50;;;9.10;;
47483;SDS011;54076;50.322;18.650;2023-08-20T19:57:30;14.40;;;8.40;;
47483;SDS011;54076;50.322;18.650;2023-08-20T20:02:31;13.00;;;8.60;;
47483;SDS011;54076;50.322;18.650;2023-08-20T20:07:31;14.80;;;8.60;;
47483;SDS011;54076;50.322;18.650;2023-08-20T20:12:32;13.90;;;8.40;;
47483;SDS011;54076;50.322;18.650;2023-08-20T20:17:34;15.30;;;8.50;;
47483;SDS011;54076;50.322;18.650;2023-08-20T20:22:39;14.70;;;8.90;;
47483;SDS011;54076;50.322;18.650;2023-08-20T20:27:41;17.00;;;9.10;;
47483;SDS011;54076;50.322;18.650;2023-08-20T20:32:42;12.80;;;8.40;;
47483;SDS011;54076;50.322;18.650;2023-08-20T20:37:44;16.70;;;9.00;;
47483;SDS011;54076;50.322;18.650;2023-08-20T20:42:46;13.70;;;8.60;;
47483;SDS011;54076;50.322;18.650;2023-08-20T20:47:47;14.60;;;8.70;;
47483;SDS011;54076;50.322;18.650;2023-08-20T20:52:48;12.40;;;8.90;;
47483;SDS011;54076;50.322;18.650;2023-08-20T20:57:49;12.90;;;8.50;;
47483;SDS011;54076;50.322;18.650;2023-08-20T21:02:50;16.40;;;9.10;;
47483;SDS011;54076;50.322;18.650;2023-08-20T21:07:51;14.10;;;9.30;;
47483;SDS011;54076;50.322;18.650;2023-08-20T21:12:52;13.70;;;8.70;;
47483;SDS011;54076;50.322;18.650;2023-08-20T21:17:53;17.50;;;9.00;;
47483;SDS011;54076;50.322;18.650;2023-08-20T21:22:54;15.40;;;8.60;;
47483;SDS011;54076;50.322;18.650;2023-08-20T21:27:55;15.70;;;8.70;;
47483;SDS011;54076;50.322;18.650;2023-08-20T21:32:56;13.70;;;9.40;;
47483;SDS011;54076;50.322;18.650;2023-08-20T21:37:57;14.90;;;9.20;;
47483;SDS011;54076;50.322;18.650;2023-08-20T21:42:58;15.00;;;9.10;;
47483;SDS011;54076;50.322;18.650;2023-08-20T21:47:59;15.10;;;8.70;;
47483;SDS011;54076;50.322;18.650;2023-08-20T21:53:00;14.30;;;9.50;;
47483;SDS011;54076;50.322;18.650;2023-08-20T21:58:01;15.00;;;9.70;;
47483;SDS011;54076;50.322;18.650;2023-08-20T22:03:02;14.40;;;9.80;;
47483;SDS011;54076;50.322;18.650;2023-08-20T22:08:03;18.00;;;9.10;;
47483;SDS011;54076;50.322;18.650;2023-08-20T22:13:05;14.70;;;8.70;;
47483;SDS011;54076;50.322;18.650;2023-08-20T22:18:06;15.60;;;9.50;;
47483;SDS011;54076;50.322;18.650;2023-08-20T22:23:07;17.90;;;9.80;;
47483;SDS011;54076;50.322;18.650;2023-08-20T22:28:08;12.40;;;8.70;;
47483;SDS011;54076;50.322;18.650;2023-08-20T22:33:09;15.00;;;9.10;;
47483;SDS011;54076;50.322;18.650;2023-08-20T22:38:10;14.70;;;9.10;;
47483;SDS011;54076;50.322;18.650;2023-08-20T22:43:11;14.50;;;8.90;;
47483;SDS011;54076;50.322;18.650;2023-08-20T22:48:12;16.90;;;9.30;;
47483;SDS011;54076;50.322;18.650;2023-08-20T22:53:13;14.50;;;9.10;;
47483;SDS011;54076;50.322;18.650;2023-08-20T22:58:14;17.70;;;9.30;;
47483;SDS011;54076;50.322;18.650;2023-08-20T23:03:14;16.00;;;9.80;;
47483;SDS011;54076;50.322;18.650;2023-08-20T23:08:15;15.00;;;8.80;;
47483;SDS011;54076;50.322;18.650;2023-08-20T23:13:16;15.70;;;8.90;;
47483;SDS011;54076;50.322;18.650;2023-08-20T23:18:17;16.50;;;9.00;;
47483;SDS011;54076;50.322;18.650;2023-08-20T23:23:18;13.70;;;9.60;;
47483;SDS011;54076;50.322;18.650;2023-08-20T23:28:19;15.70;;;9.40;;
47483;SDS011;54076;50.322;18.650;2023-08-20T23:33:24;16.30;;;9.20;;
47483;SDS011;54076;50.322;18.650;2023-08-20T23:38:25;14.40;;;9.70;;
47483;SDS011;54076;50.322;18.650;2023-08-20T23:43:26;14.80;;;8.90;;
47483;SDS011;54076;50.322;18.650;2023-08-20T23:48:27;16.60;;;9.40;;
47483;SDS011;54076;50.322;18.650;2023-08-20T23:53:28;14.30;;;9.40;;
47483;SDS011;54076;50.322;18.650;2023-08-20T23:58:29;14.60;;;9.30;;
